Time;durP1;ratioP1;P1;durP2;ratioP2;P2;SDS_P1;SDS_P2;PMS_P1;PMS_P2;Temp;Humidity;BMP_temperature;BMP_pressure;BME280_temperature;BME280_humidity;BME280_pressure;Samples;Min_cycle;Max_cycle;Signal;HPM_P1;HPM_P2
2021/05/20 00:01:25;;;;;;;1.65;1.23;;;;;;;11.77;78.86;100704.84;5007727;28;20085;-83
2021/05/20 00:03:59;;;;;;;2.63;1.70;;;;;;;11.80;78.74;100714.47;5021628;28;20050;-82
2021/05/20 00:06:27;;;;;;;3.05;1.35;;;;;;;11.79;78.76;100718.03;5021522;28;20034;-82
2021/05/20 00:08:56;;;;;;;1.75;1.40;;;;;;;11.77;79.58;100717.25;5035975;28;20038;-83
2021/05/20 00:11:24;;;;;;;3.33;1.55;;;;;;;11.79;79.38;100715.38;5011161;28;20066;-83
2021/05/20 00:13:54;;;;;;;2.00;1.00;;;;;;;11.78;78.14;100706.56;5004667;28;20052;-83
2021/05/20 00:16:24;;;;;;;1.83;1.10;;;;;;;11.71;78.28;100714.84;5021799;28;20061;-84
2021/05/20 00:18:51;;;;;;;1.20;1.10;;;;;;;11.74;78.61;100714.69;4996193;28;20049;-82
2021/05/20 00:21:19;;;;;;;1.67;0.93;;;;;;;11.77;77.68;100717.25;5004774;28;20152;-82
2021/05/20 00:23:46;;;;;;;2.00;0.68;;;;;;;11.76;77.43;100719.03;4998936;28;20050;-82
2021/05/20 00:26:13;;;;;;;0.68;0.68;;;;;;;11.72;76.77;100719.22;5005659;28;20060;-82
2021/05/20 00:28:43;;;;;;;2.00;0.85;;;;;;;11.70;77.50;100721.94;5033459;28;20049;-83
2021/05/20 00:31:09;;;;;;;1.80;0.70;;;;;;;11.68;77.21;100717.63;5013752;28;20080;-83
2021/05/20 00:33:38;;;;;;;0.82;0.70;;;;;;;11.69;76.68;100716.69;4999597;28;20394;-83
2021/05/20 00:36:08;;;;;;;0.98;0.80;;;;;;;11.69;76.17;100720.22;5013651;28;20049;-82
2021/05/20 00:38:38;;;;;;;2.95;0.82;;;;;;;11.69;76.65;100725.50;4984196;28;20077;-82
2021/05/20 00:41:05;;;;;;;2.13;0.73;;;;;;;11.66;76.72;100722.13;5019595;28;20096;-82
2021/05/20 00:43:32;;;;;;;2.13;0.70;;;;;;;11.63;76.84;100724.94;5002506;28;20042;-82
2021/05/20 00:45:58;;;;;;;1.65;0.70;;;;;;;11.64;76.81;100726.69;5019001;28;20053;-82
2021/05/20 00:48:26;;;;;;;3.90;1.40;;;;;;;11.67;76.61;100734.47;5018240;28;20085;-82
2021/05/20 00:50:53;;;;;;;1.08;0.80;;;;;;;11.68;76.58;100729.09;4999440;28;20046;-82
2021/05/20 00:53:22;;;;;;;0.98;0.57;;;;;;;11.71;75.73;100731.63;5016886;28;20157;-82
2021/05/20 00:55:52;;;;;;;0.80;0.80;;;;;;;11.74;75.75;100733.28;4996363;28;20108;-82
2021/05/20 00:58:23;;;;;;;2.60;0.70;;;;;;;11.73;75.55;100728.88;5015186;28;20085;-82
2021/05/20 01:00:54;;;;;;;1.33;0.70;;;;;;;11.71;75.58;100733.41;4998458;28;20045;-82
2021/05/20 01:03:22;;;;;;;1.67;0.85;;;;;;;11.63;75.92;100724.94;5005174;28;20060;-82
2021/05/20 01:05:53;;;;;;;2.05;0.60;;;;;;;11.65;75.69;100733.69;5001287;28;20046;-82
2021/05/20 01:08:25;;;;;;;1.42;0.85;;;;;;;11.62;75.60;100739.16;5016570;28;20077;-83
2021/05/20 01:10:55;;;;;;;1.58;0.70;;;;;;;11.58;75.50;100744.59;5014549;28;20446;-82
2021/05/20 01:13:23;;;;;;;1.73;0.80;;;;;;;11.48;76.50;100734.47;5016082;28;20136;-83
2021/05/20 01:15:53;;;;;;;1.75;0.70;;;;;;;11.39;76.79;100735.72;5007494;28;20088;-83
2021/05/20 01:18:23;;;;;;;2.28;1.02;;;;;;;11.35;77.58;100742.09;5018591;28;20053;-82
2021/05/20 01:20:50;;;;;;;2.15;0.80;;;;;;;11.35;77.37;100738.56;5017462;28;20057;-83
2021/05/20 01:23:19;;;;;;;2.53;1.10;;;;;;;11.32;77.92;100736.94;5005651;28;20049;-83
2021/05/20 01:25:48;;;;;;;1.17;0.90;;;;;;;11.35;77.98;100738.56;5030636;28;20038;-83
2021/05/20 01:28:17;;;;;;;1.95;1.00;;;;;;;11.39;78.07;100742.81;5027396;28;20050;-80
2021/05/20 01:30:46;;;;;;;1.05;0.95;;;;;;;11.40;77.60;100740.09;5025719;28;20050;-84
2021/05/20 01:33:13;;;;;;;1.38;0.95;;;;;;;11.40;77.32;100736.59;5022858;28;20053;-82
2021/05/20 01:35:42;;;;;;;2.83;1.50;;;;;;;11.43;77.34;100745.28;5010648;28;20042;-81
2021/05/20 01:40:57;;;;;;;1.23;1.00;;;;;;;11.38;78.20;100741.09;5031998;28;20078;-82
2021/05/20 01:43:26;;;;;;;2.30;0.95;;;;;;;11.35;77.79;100747.41;5021495;28;20501;-81
2021/05/20 01:46:00;;;;;;;0.82;0.82;;;;;;;11.20;77.88;100730.38;5009911;28;20038;-82
2021/05/20 01:48:38;;;;;;;1.70;1.08;;;;;;;11.28;77.66;100753.06;5013990;28;20085;-83
2021/05/20 01:51:07;;;;;;;0.82;0.82;;;;;;;11.22;78.63;100748.88;5018488;28;20085;-82
2021/05/20 01:53:38;;;;;;;2.53;1.10;;;;;;;11.15;79.29;100745.66;5000652;28;20053;-83
2021/05/20 01:56:06;;;;;;;;;;;;;;;11.17;79.26;100750.88;5015716;28;20034;-83
2021/05/20 01:58:34;;;;;;;2.00;0.98;;;;;;;11.17;79.26;100748.22;5014248;28;20677;-82
2021/05/20 02:01:00;;;;;;;3.10;0.85;;;;;;;11.14;79.04;100748.34;4996832;28;20057;-83
2021/05/20 02:03:29;;;;;;;2.22;1.10;;;;;;;11.13;79.19;100746.63;4997918;28;20061;-83
2021/05/20 02:05:58;;;;;;;1.70;1.20;;;;;;;11.13;79.51;100749.28;4992213;28;20074;-83
2021/05/20 02:08:25;;;;;;;1.02;0.82;;;;;;;11.04;79.76;100739.94;4998287;28;20052;-81
2021/05/20 02:10:52;;;;;;;5.65;1.15;;;;;;;11.14;79.71;100743.06;5016519;28;20056;-82
2021/05/20 02:13:21;;;;;;;1.67;1.02;;;;;;;11.18;79.04;100749.91;5016247;28;20076;-84
2021/05/20 02:15:51;;;;;;;1.83;1.10;;;;;;;11.16;78.74;100742.06;4998272;28;20097;-82
2021/05/20 02:18:19;;;;;;;1.83;1.05;;;;;;;11.24;78.34;100749.66;5018212;28;20053;-82
2021/05/20 02:20:50;;;;;;;2.45;1.10;;;;;;;11.28;78.97;100756.56;5014873;28;20084;-82
2021/05/20 02:23:19;;;;;;;4.07;1.45;;;;;;;11.29;78.18;100758.28;5024208;28;20073;-82
2021/05/20 02:25:45;;;;;;;3.63;1.60;;;;;;;11.30;78.08;100754.72;5002135;28;20093;-81
2021/05/20 02:28:12;;;;;;;2.25;1.40;;;;;;;11.32;78.35;100760.81;5001269;28;20045;-82
2021/05/20 02:30:43;;;;;;;2.80;1.42;;;;;;;11.33;77.71;100765.19;5005213;28;20050;-82
2021/05/20 02:33:10;;;;;;;1.27;0.90;;;;;;;11.31;78.38;100767.03;5009422;28;20030;-82
2021/05/20 02:35:36;;;;;;;1.17;0.93;;;;;;;11.22;78.81;100756.81;5000733;28;20030;-83
2021/05/20 02:38:03;;;;;;;2.65;0.90;;;;;;;11.13;78.38;100743.97;5014024;28;20049;-83
2021/05/20 02:40:32;;;;;;;1.60;0.95;;;;;;;11.19;78.72;100764.91;5025463;28;20064;-83
2021/05/20 02:42:59;;;;;;;1.58;0.90;;;;;;;11.20;78.99;100764.84;5013593;28;20068;-82
2021/05/20 02:45:29;;;;;;;2.50;1.20;;;;;;;11.16;78.83;100773.88;5015001;28;20057;-83
2021/05/20 02:47:56;;;;;;;1.80;0.95;;;;;;;11.17;78.82;100780.03;5005291;28;20113;-82
2021/05/20 02:50:25;;;;;;;1.38;1.05;;;;;;;11.18;78.87;100776.44;5030401;28;20073;-82
2021/05/20 02:52:53;;;;;;;1.90;1.02;;;;;;;11.25;78.64;100772.59;5008530;28;20048;-83
2021/05/20 02:55:22;;;;;;;1.45;0.77;;;;;;;11.25;78.26;100773.47;5022248;28;20050;-82
2021/05/20 02:57:55;;;;;;;1.30;1.02;;;;;;;11.31;78.12;100788.25;5013328;28;20042;-82
2021/05/20 03:00:27;;;;;;;2.53;1.10;;;;;;;11.29;78.21;100781.28;5020220;28;20044;-82
2021/05/20 03:02:55;;;;;;;1.52;1.17;;;;;;;11.21;77.83;100771.88;5033807;28;20055;-83
2021/05/20 03:05:22;;;;;;;2.30;1.40;;;;;;;11.25;78.17;100784.06;5030316;28;20095;-81
2021/05/20 03:07:53;;;;;;;4.13;1.42;;;;;;;11.27;77.78;100781.34;5015927;28;20061;-82
2021/05/20 03:10:25;;;;;;;4.15;1.10;;;;;;;11.23;78.44;100775.31;5016486;28;20038;-82
2021/05/20 03:12:53;;;;;;;2.78;1.10;;;;;;;11.19;77.96;100773.72;5034383;28;20036;-81
2021/05/20 03:15:22;;;;;;;1.27;1.13;;;;;;;11.27;77.87;100781.34;5016960;28;20104;-80
2021/05/20 03:17:49;;;;;;;2.38;1.35;;;;;;;11.30;77.32;100785.66;5027764;28;20048;-82
2021/05/20 03:20:17;;;;;;;1.10;1.00;;;;;;;11.38;75.72;100779.09;5027821;28;20044;-84
2021/05/20 03:22:46;;;;;;;1.48;0.90;;;;;;;11.38;75.47;100788.81;5022958;28;20040;-82
2021/05/20 03:25:16;;;;;;;0.85;0.70;;;;;;;11.35;75.49;100778.34;5012075;28;20045;-82
2021/05/20 03:27:46;;;;;;;1.25;0.93;;;;;;;11.35;75.61;100773.03;5028563;28;20042;-83
2021/05/20 03:30:13;;;;;;;1.65;0.80;;;;;;;11.30;75.77;100775.91;5028383;28;20237;-83
2021/05/20 03:32:40;;;;;;;0.80;0.80;;;;;;;11.26;76.08;100774.31;5017786;28;20129;-83
2021/05/20 03:35:07;;;;;;;1.17;0.98;;;;;;;11.22;76.02;100783.34;5018382;28;20092;-83
2021/05/20 03:37:36;;;;;;;1.63;1.52;;;;;;;11.16;75.85;100778.31;5017561;28;20089;-83
2021/05/20 03:40:05;;;;;;;1.63;1.38;;;;;;;11.17;75.51;100775.59;4997492;28;20110;-83
2021/05/20 03:42:32;;;;;;;2.17;1.40;;;;;;;11.25;76.19;100794.66;4998274;28;20170;-83
2021/05/20 03:44:59;;;;;;;2.03;1.35;;;;;;;11.25;75.86;100791.16;4998103;28;20046;-82
2021/05/20 03:47:26;;;;;;;2.25;1.40;;;;;;;11.28;75.41;100793.69;4998081;28;20049;-82
2021/05/20 03:49:53;;;;;;;2.78;1.60;;;;;;;11.25;76.04;100791.16;4998246;28;20046;-83
2021/05/20 03:52:20;;;;;;;2.20;1.30;;;;;;;11.28;75.86;100798.13;4997416;28;20528;-83
2021/05/20 03:54:48;;;;;;;1.67;1.50;;;;;;;11.28;75.97;100796.34;4995794;28;20153;-83
2021/05/20 03:57:16;;;;;;;1.10;1.10;;;;;;;11.33;75.67;100812.91;4996734;28;20066;-83
2021/05/20 03:59:43;;;;;;;3.30;1.55;;;;;;;11.30;75.34;100806.88;5008142;28;20081;-83
2021/05/20 04:02:09;;;;;;;3.42;1.60;;;;;;;11.32;75.72;100808.53;4992819;28;20061;-84
2021/05/20 04:04:36;;;;;;;4.50;2.90;;;;;;;11.31;75.93;100814.75;5011139;28;20389;-83
2021/05/20 04:07:03;;;;;;;2.10;1.90;;;;;;;11.24;76.29;100805.34;4993410;28;20050;-83
2021/05/20 04:09:30;;;;;;;2.00;1.50;;;;;;;11.29;76.44;100813.97;5012985;28;20081;-83
2021/05/20 04:12:00;;;;;;;2.22;1.90;;;;;;;11.29;76.23;100813.09;5009031;28;20054;-83
2021/05/20 04:14:27;;;;;;;1.95;1.73;;;;;;;11.32;76.44;100827.09;4992944;28;20024;-82
2021/05/20 04:16:54;;;;;;;3.33;1.80;;;;;;;11.29;76.32;100821.91;5016618;28;20061;-82
2021/05/20 04:19:22;;;;;;;2.53;2.13;;;;;;;11.29;76.57;100821.06;4993282;28;20133;-83
2021/05/20 04:21:53;;;;;;;2.83;2.10;;;;;;;11.23;76.65;100830.97;5016419;28;20098;-83
2021/05/20 04:24:21;;;;;;;3.58;2.63;;;;;;;11.23;76.76;100828.34;5018653;28;20064;-83
2021/05/20 04:26:48;;;;;;;3.88;2.70;;;;;;;11.28;76.86;100841.41;5006010;28;20034;-82
2021/05/20 04:29:17;;;;;;;4.00;2.95;;;;;;;11.26;76.82;100830.00;5014208;28;20075;-83
2021/05/20 04:31:45;;;;;;;4.65;2.97;;;;;;;11.26;76.83;100835.28;5007898;28;20106;-82
2021/05/20 04:34:12;;;;;;;6.15;3.33;;;;;;;11.20;77.42;100833.75;5034077;28;20048;-82
2021/05/20 04:36:39;;;;;;;4.03;2.90;;;;;;;11.16;77.72;100826.88;5008654;28;20054;-82
2021/05/20 04:39:06;;;;;;;4.43;4.03;;;;;;;11.21;77.64;100838.13;4983097;28;20050;-82
2021/05/20 04:41:32;;;;;;;5.97;4.30;;;;;;;11.18;77.75;100825.00;5013989;28;20050;-82
2021/05/20 04:44:00;;;;;;;5.88;4.55;;;;;;;11.20;77.66;100835.53;4997107;28;20054;-82
2021/05/20 04:46:29;;;;;;;5.25;4.43;;;;;;;11.22;77.96;100842.50;5000742;28;20050;-82
2021/05/20 04:48:56;;;;;;;6.57;4.80;;;;;;;11.28;77.60;100846.69;5022582;28;20053;-82
2021/05/20 04:51:25;;;;;;;7.28;5.50;;;;;;;11.28;77.75;100846.69;4999504;28;20483;-82
2021/05/20 04:53:53;;;;;;;5.88;5.05;;;;;;;11.28;78.23;100854.66;5003323;28;20056;-82
2021/05/20 04:56:23;;;;;;;7.70;5.40;;;;;;;11.30;78.30;100866.06;5017946;28;20048;-84
2021/05/20 04:58:50;;;;;;;8.48;6.50;;;;;;;11.36;77.42;100871.09;4994457;28;20074;-81
2021/05/20 05:01:17;;;;;;;9.68;6.55;;;;;;;11.39;77.31;100859.50;5018913;28;20053;-82
2021/05/20 05:03:44;;;;;;;7.10;5.90;;;;;;;11.41;77.29;100862.94;5016945;28;20448;-83
2021/05/20 05:06:13;;;;;;;9.32;6.20;;;;;;;11.45;76.92;100880.47;5003883;28;20057;-83
2021/05/20 05:08:40;;;;;;;8.77;6.53;;;;;;;11.48;76.84;100875.88;5025150;28;20046;-83
2021/05/20 05:11:06;;;;;;;8.98;6.50;;;;;;;11.52;76.48;100871.28;5002456;28;20137;-83
2021/05/20 05:13:34;;;;;;;7.63;5.90;;;;;;;11.53;76.71;100873.00;5034970;28;20038;-82
2021/05/20 05:16:01;;;;;;;8.45;6.32;;;;;;;11.56;76.77;100884.38;5009931;28;20037;-82
2021/05/20 05:18:28;;;;;;;9.43;6.63;;;;;;;11.60;76.60;100891.28;5008064;28;20056;-82
2021/05/20 05:20:55;;;;;;;9.30;6.90;;;;;;;11.62;76.69;100887.69;5030598;28;20041;-83
2021/05/20 05:23:22;;;;;;;10.13;7.43;;;;;;;11.67;76.55;100894.50;5037561;28;20092;-83
2021/05/20 05:25:50;;;;;;;10.88;7.35;;;;;;;11.69;76.56;100894.44;5004159;28;20038;-83
2021/05/20 05:28:17;;;;;;;10.48;8.00;;;;;;;11.70;76.15;100891.72;5020675;28;20069;-82
2021/05/20 05:30:47;;;;;;;9.27;7.47;;;;;;;11.80;76.28;100903.72;5018906;28;20033;-82
2021/05/20 05:33:14;;;;;;;9.98;7.45;;;;;;;11.96;75.43;100913.66;5020403;28;20068;-82
2021/05/20 05:35:42;;;;;;;10.05;8.55;;;;;;;12.01;74.65;100919.59;5031835;28;20061;-83
2021/05/20 05:38:11;;;;;;;12.40;7.88;;;;;;;12.10;74.47;100917.41;4992014;28;20042;-82
2021/05/20 05:40:38;;;;;;;12.20;9.27;;;;;;;12.16;73.87;100921.56;5010258;28;20042;-82
2021/05/20 05:43:05;;;;;;;11.20;9.18;;;;;;;12.16;74.08;100910.94;4985861;28;20045;-82
2021/05/20 05:45:34;;;;;;;12.65;9.55;;;;;;;12.19;74.06;100916.97;5036095;28;20144;-82
2021/05/20 05:48:01;;;;;;;12.52;10.05;;;;;;;12.21;74.05;100917.78;5031455;28;20106;-82
2021/05/20 05:50:28;;;;;;;13.07;10.02;;;;;;;12.22;73.63;100913.31;5037127;28;20084;-82
2021/05/20 05:53:02;;;;;;;15.05;10.02;;;;;;;12.26;74.00;100923.75;5016415;28;20049;-82
2021/05/20 05:55:33;;;;;;;14.88;11.13;;;;;;;12.30;73.37;100921.78;5014553;28;20025;-84
2021/05/20 05:58:03;;;;;;;14.52;10.80;;;;;;;12.37;73.81;100920.59;5030761;28;20101;-84
2021/05/20 06:00:31;;;;;;;15.38;11.15;;;;;;;12.41;72.69;100921.31;5019676;28;20049;-82
2021/05/20 06:02:59;;;;;;;14.13;11.07;;;;;;;12.40;71.36;100924.91;4974264;28;20041;-82
2021/05/20 06:05:27;;;;;;;13.65;11.10;;;;;;;12.39;72.99;100929.34;5022889;28;20503;-84
2021/05/20 06:07:55;;;;;;;14.07;10.82;;;;;;;12.40;72.89;100930.22;4999643;28;20053;-84
2021/05/20 06:10:23;;;;;;;15.95;12.40;;;;;;;12.47;72.64;100929.84;5001105;28;20193;-82
2021/05/20 06:12:50;;;;;;;16.15;11.45;;;;;;;12.53;72.28;100926.91;5015912;28;20046;-83
2021/05/20 06:15:20;;;;;;;14.90;11.77;;;;;;;12.63;72.05;100932.66;4998860;28;20054;-84
2021/05/20 06:17:50;;;;;;;15.20;11.63;;;;;;;12.79;73.64;100932.78;5019161;28;20046;-83
2021/05/20 06:20:16;;;;;;;16.67;10.80;;;;;;;13.04;73.38;100935.16;5002034;28;20092;-83
2021/05/20 06:22:44;;;;;;;14.05;11.60;;;;;;;13.31;72.64;100933.81;5027654;28;20054;-83
2021/05/20 06:25:11;;;;;;;15.57;12.68;;;;;;;13.41;68.74;100929.75;5012272;28;20042;-83
2021/05/20 06:27:40;;;;;;;16.10;12.57;;;;;;;13.48;68.66;100940.97;4999572;28;20049;-82
2021/05/20 06:30:07;;;;;;;15.38;12.60;;;;;;;13.50;67.83;100923.13;5001541;28;20042;-84
2021/05/20 06:32:37;;;;;;;15.23;11.43;;;;;;;13.61;67.17;100939.41;5007988;28;20584;-84
2021/05/20 06:35:04;;;;;;;23.15;12.05;;;;;;;13.62;67.62;100934.00;5013180;28;20049;-84
2021/05/20 06:37:32;;;;;;;17.15;12.38;;;;;;;13.68;67.29;100933.69;5012550;28;20044;-82
2021/05/20 06:40:01;;;;;;;19.65;12.88;;;;;;;13.85;66.84;100938.13;5032223;28;20030;-82
2021/05/20 06:42:28;;;;;;;14.25;11.90;;;;;;;13.94;66.23;100937.66;5030114;28;20153;-81
2021/05/20 06:44:54;;;;;;;15.98;11.38;;;;;;;13.99;65.78;100929.44;5018918;28;20042;-81
2021/05/20 06:47:22;;;;;;;15.50;11.80;;;;;;;13.95;64.79;100915.44;5027632;28;20061;-83
2021/05/20 06:49:51;;;;;;;17.45;12.15;;;;;;;14.11;64.49;100936.78;5023295;28;20053;-83
2021/05/20 06:52:21;;;;;;;17.13;11.90;;;;;;;14.65;65.21;100950.75;5000538;28;20038;-84
2021/05/20 06:54:49;;;;;;;14.70;11.50;;;;;;;16.65;59.44;100937.13;5001289;28;20052;-85
2021/05/20 07:00:11;;;;;;;10.45;9.25;;;;;;;21.35;44.68;100940.94;4972704;28;20042;-75
2021/05/20 07:02:38;;;;;;;12.70;8.65;;;;;;;22.65;40.16;100944.09;5014015;28;20050;-85
2021/05/20 07:05:30;;;;;;;10.80;8.88;;;;;;;21.67;39.83;100948.16;5024157;28;20412;-84
2021/05/20 07:08:00;;;;;;;;;;;;;;;20.44;42.24;100939.47;4995936;28;20051;-83
2021/05/20 07:10:29;;;;;;;11.88;9.77;;;;;;;19.43;45.13;100943.66;5023672;28;19965;-83
2021/05/20 07:12:59;;;;;;;11.90;10.45;;;;;;;18.86;47.26;100944.34;5023965;28;20118;-83
2021/05/20 07:15:29;;;;;;;12.55;10.27;;;;;;;18.95;48.38;100929.38;5028079;28;20061;-83
2021/05/20 07:17:57;;;;;;;14.93;10.52;;;;;;;19.50;46.03;100940.47;5013526;28;20053;-84
2021/05/20 07:20:26;;;;;;;13.10;9.98;;;;;;;19.94;44.48;100933.50;5024081;28;20105;-82
2021/05/20 07:22:54;;;;;;;10.15;8.63;;;;;;;21.09;43.05;100931.44;5018104;28;20038;-83
2021/05/20 07:25:22;;;;;;;10.68;8.88;;;;;;;21.78;39.69;100926.53;5032747;28;20131;-83
2021/05/20 07:27:51;;;;;;;10.43;9.25;;;;;;;22.24;39.82;100930.69;5030565;23;20176;-69
2021/05/20 07:30:17;;;;;;;10.88;9.30;;;;;;;23.03;36.89;100923.63;5018310;28;20049;-65
2021/05/20 07:32:45;;;;;;;9.40;8.50;;;;;;;22.49;36.78;100941.03;5015246;28;20060;-66
2021/05/20 07:35:11;;;;;;;10.95;8.35;;;;;;;21.88;38.45;100937.41;5034162;28;20049;-67
2021/05/20 07:37:38;;;;;;;9.80;7.32;;;;;;;22.43;37.03;100935.31;5016193;28;20062;-63
2021/05/20 07:40:09;;;;;;;8.73;7.80;;;;;;;23.36;35.71;100936.75;5027063;28;20076;-65
2021/05/20 07:42:35;;;;;;;8.98;8.07;;;;;;;22.96;35.63;100933.28;5030648;28;20059;-65
2021/05/20 07:45:04;;;;;;;9.15;8.25;;;;;;;21.86;37.48;100945.63;5023469;28;20119;-64
2021/05/20 07:47:30;;;;;;;8.43;7.57;;;;;;;20.91;40.16;100932.94;5022460;28;20045;-65
2021/05/20 07:49:57;;;;;;;10.98;8.95;;;;;;;20.86;39.82;100938.69;5019411;28;20635;-67
2021/05/20 07:52:25;;;;;;;9.45;8.43;;;;;;;21.08;40.13;100939.66;5009945;28;20041;-65
2021/05/20 07:54:53;;;;;;;9.50;8.57;;;;;;;21.06;38.93;100931.69;5022234;28;20053;-64
2021/05/20 07:57:20;;;;;;;9.43;8.50;;;;;;;20.72;39.68;100943.50;5034938;28;20136;-67
2021/05/20 07:59:47;;;;;;;10.10;9.07;;;;;;;20.42;40.06;100939.59;5029038;28;20132;-68
2021/05/20 08:02:29;;;;;;;9.70;8.00;;;;;;;21.14;39.88;100939.97;5025702;28;20483;-67
2021/05/20 08:05:01;;;;;;;8.77;7.88;;;;;;;22.12;37.78;100942.53;5013330;28;20085;-71
2021/05/20 08:08:21;;;;;;;8.93;7.35;;;;;;;22.91;35.72;100940.94;5026729;28;20137;-73
2021/05/20 08:12:46;;;;;;;8.00;7.20;;;;;;;23.92;34.44;100941.47;5026239;28;20104;-69
2021/05/20 08:15:13;;;;;;;8.75;7.85;;;;;;;24.58;33.02;100943.28;5013325;28;20052;-66
2021/05/20 08:17:40;;;;;;;7.53;6.45;;;;;;;24.78;32.33;100944.91;5023503;28;20072;-65
2021/05/20 08:20:07;;;;;;;8.23;6.53;;;;;;;23.74;32.94;100945.91;5013447;28;20146;-67
2021/05/20 08:22:38;;;;;;;8.65;6.82;;;;;;;22.59;35.07;100941.94;5032004;28;20053;-71
2021/05/20 08:25:07;;;;;;;7.40;6.70;;;;;;;21.82;36.97;100946.84;5014893;28;20049;-67
2021/05/20 08:27:34;;;;;;;7.80;6.97;;;;;;;21.02;38.34;100944.53;5012566;28;20050;-69
2021/05/20 08:30:06;;;;;;;7.73;6.87;;;;;;;20.40;39.63;100938.84;5012398;28;20050;-72
2021/05/20 08:32:36;;;;;;;8.65;7.00;;;;;;;19.70;41.34;100936.22;5029801;28;20051;-68
2021/05/20 08:35:04;;;;;;;7.00;6.30;;;;;;;19.66;41.82;100939.28;5022362;28;20053;-71
2021/05/20 08:37:31;;;;;;;7.55;6.78;;;;;;;19.39;41.96;100934.13;5018803;28;20041;-69
2021/05/20 08:39:58;;;;;;;8.27;7.13;;;;;;;19.28;41.58;100934.94;5003713;28;20044;-69
2021/05/20 08:42:25;;;;;;;7.20;6.53;;;;;;;19.02;42.60;100942.25;5016985;28;20434;-68
2021/05/20 08:44:52;;;;;;;7.65;6.95;;;;;;;18.69;43.06;100942.88;5014512;28;20053;-68
2021/05/20 08:47:18;;;;;;;8.32;7.15;;;;;;;18.45;44.49;100933.84;5011113;28;20103;-67
2021/05/20 08:49:47;;;;;;;7.50;6.38;;;;;;;18.31;44.15;100945.56;5027293;28;20080;-64
2021/05/20 08:52:14;;;;;;;7.40;6.00;;;;;;;18.07;44.30;100949.97;5017546;28;20053;-65
2021/05/20 08:54:47;;;;;;;6.22;5.57;;;;;;;17.80;43.86;100941.97;5027899;28;20053;-64
2021/05/20 08:57:14;;;;;;;7.55;6.22;;;;;;;17.64;44.79;100939.47;5024496;28;20072;-67
2021/05/20 08:59:40;;;;;;;7.10;6.00;;;;;;;17.65;45.35;100949.25;5028855;28;20056;-65
2021/05/20 09:02:07;;;;;;;7.50;6.55;;;;;;;17.83;45.58;100945.31;5033895;28;20095;-66
2021/05/20 09:04:34;;;;;;;9.50;7.53;;;;;;;18.09;45.65;100940.84;5031389;28;20080;-64
2021/05/20 09:07:10;;;;;;;8.45;7.55;;;;;;;18.33;45.73;100946.31;5010117;28;20058;-62
2021/05/20 09:09:41;;;;;;;;;;;;;;;18.30;45.78;100949.19;5013128;28;20061;-62
2021/05/20 09:12:08;;;;;;;6.82;6.10;;;;;;;18.17;46.01;100953.72;5033734;28;20011;-61
2021/05/20 09:14:42;;;;;;;7.30;6.60;;;;;;;18.26;44.88;100961.09;5028800;28;20053;-66
2021/05/20 09:17:16;;;;;;;7.53;6.82;;;;;;;18.26;45.04;100965.63;5019455;28;20042;-65
2021/05/20 09:19:52;;;;;;;10.07;7.85;;;;;;;18.14;44.78;100957.47;5028143;28;20390;-64
2021/05/20 09:22:19;;;;;;;8.75;7.57;;;;;;;17.94;45.98;100955.31;5028215;28;20089;-68
2021/05/20 09:24:51;;;;;;;8.65;7.43;;;;;;;17.85;47.63;100961.28;5014148;28;20046;-67
2021/05/20 09:27:34;;;;;;;8.30;7.40;;;;;;;17.94;46.56;100967.84;5023425;28;20053;-64
2021/05/20 09:30:08;;;;;;;10.50;7.17;;;;;;;17.97;46.38;100967.63;5041555;28;20052;-65
2021/05/20 09:32:41;;;;;;;9.00;7.38;;;;;;;17.91;47.48;100962.69;5039013;28;20053;-67
2021/05/20 09:35:08;;;;;;;11.07;8.00;;;;;;;17.74;47.12;100967.38;5038387;28;20061;-64
2021/05/20 09:37:53;;;;;;;8.75;7.45;;;;;;;17.41;48.51;100966.94;5039854;28;20049;-67
2021/05/20 09:40:23;;;;;;;12.43;8.23;;;;;;;17.10;49.23;100968.09;5017605;28;20115;-67
2021/05/20 09:42:50;;;;;;;10.80;8.25;;;;;;;16.91;49.15;100955.03;5040015;28;20076;-66
2021/05/20 09:45:22;;;;;;;8.88;7.80;;;;;;;16.64;50.59;100957.66;5037125;28;20050;-65
2021/05/20 09:47:51;;;;;;;10.40;7.00;;;;;;;16.53;49.91;100959.25;5012595;28;20042;-66
2021/05/20 09:50:21;;;;;;;7.65;6.72;;;;;;;16.44;49.52;100952.66;5020047;28;20089;-65
2021/05/20 09:52:49;;;;;;;9.70;8.57;;;;;;;16.46;50.43;100948.94;5006404;28;20063;-65
2021/05/20 09:55:26;;;;;;;10.75;8.23;;;;;;;16.62;49.58;100953.31;5024202;28;20041;-66
2021/05/20 09:57:55;;;;;;;8.98;7.30;;;;;;;16.75;49.60;100946.28;5032665;28;20049;-64
2021/05/20 10:00:24;;;;;;;9.25;8.05;;;;;;;16.97;48.62;100943.09;5015351;28;20064;-65
2021/05/20 10:03:04;;;;;;;8.00;7.28;;;;;;;17.07;48.49;100934.34;5036527;28;20069;-66
2021/05/20 10:05:32;;;;;;;8.52;6.63;;;;;;;17.16;47.33;100932.88;5033497;28;20116;-67
2021/05/20 10:08:01;;;;;;;8.77;7.10;;;;;;;17.33;47.03;100931.75;5016943;28;20104;-67
2021/05/20 10:10:33;;;;;;;7.63;6.72;;;;;;;17.44;46.70;100932.78;5016600;28;20052;-68
2021/05/20 10:13:14;;;;;;;8.45;7.00;;;;;;;17.63;48.32;100935.06;5016241;28;20046;-68
2021/05/20 10:15:41;;;;;;;;;;;;;;;17.92;46.43;100933.13;5017577;28;20041;-64
2021/05/20 10:18:10;;;;;;;8.40;6.97;;;;;;;18.27;45.34;100936.00;5028131;28;19921;-65
2021/05/20 10:20:38;;;;;;;8.10;7.10;;;;;;;18.43;44.63;100938.47;5033994;28;20088;-64
2021/05/20 10:23:11;;;;;;;6.72;5.97;;;;;;;18.56;43.79;100926.78;5013368;28;20491;-66
2021/05/20 10:25:40;;;;;;;8.10;6.78;;;;;;;18.64;43.22;100936.09;5007893;28;20059;-64
2021/05/20 10:28:09;;;;;;;7.25;6.15;;;;;;;18.64;43.47;100923.56;5018598;28;20040;-65
2021/05/20 10:30:41;;;;;;;7.32;6.20;;;;;;;18.66;43.10;100915.41;5023351;28;20052;-65
2021/05/20 10:33:09;;;;;;;9.15;6.80;;;;;;;18.86;42.39;100920.19;5011772;28;20460;-65
2021/05/20 10:35:43;;;;;;;6.68;5.40;;;;;;;18.95;42.77;100908.75;5000273;28;20068;-65
2021/05/20 10:38:14;;;;;;;6.43;5.82;;;;;;;18.90;41.40;100910.91;5009454;28;20057;-69
2021/05/20 10:40:41;;;;;;;6.70;5.85;;;;;;;18.81;42.41;100903.56;5014859;28;21498;-66
2021/05/20 10:43:15;;;;;;;9.27;6.32;;;;;;;18.81;42.75;100907.09;5033495;28;20052;-64
2021/05/20 10:45:59;;;;;;;7.32;6.10;;;;;;;18.80;42.83;100908.06;5010215;28;20117;-68
2021/05/20 10:48:28;;;;;;;6.85;5.40;;;;;;;18.84;42.08;100900.66;5008299;28;20045;-65
2021/05/20 10:50:56;;;;;;;6.47;5.88;;;;;;;19.00;42.54;100893.19;5017990;28;20057;-64
2021/05/20 10:53:48;;;;;;;7.18;6.18;;;;;;;19.19;41.58;100890.00;5012470;28;20046;-63
2021/05/20 10:56:14;;;;;;;10.88;6.45;;;;;;;19.20;40.32;100878.28;5031309;28;20111;-63
2021/05/20 10:58:44;;;;;;;9.38;6.03;;;;;;;19.21;41.84;100888.03;5012525;28;20079;-64
2021/05/20 11:01:19;;;;;;;7.27;5.97;;;;;;;19.34;41.01;100887.97;5024876;28;20137;-66
2021/05/20 11:03:49;;;;;;;7.30;6.28;;;;;;;19.45;40.18;100877.28;5026721;28;20053;-67
2021/05/20 11:06:17;;;;;;;6.95;5.72;;;;;;;19.54;39.27;100877.44;5008111;28;20053;-67
2021/05/20 11:08:44;;;;;;;7.68;6.00;;;;;;;19.47;39.72;100872.63;5024085;28;20041;-68
2021/05/20 11:11:22;;;;;;;9.20;5.57;;;;;;;19.53;40.22;100866.81;5008511;28;20120;-73
2021/05/20 11:13:49;;;;;;;7.75;6.10;;;;;;;19.75;40.50;100868.72;5025676;28;20508;-65
2021/05/20 11:16:20;;;;;;;9.70;6.80;;;;;;;19.63;40.88;100867.84;5013828;28;20057;-64
2021/05/20 11:18:51;;;;;;;7.72;6.03;;;;;;;19.66;41.42;100856.84;5024792;28;20453;-63
2021/05/20 11:21:21;;;;;;;8.20;6.05;;;;;;;19.73;39.94;100854.53;5008436;28;20056;-65
2021/05/20 11:23:48;;;;;;;8.23;5.13;;;;;;;19.67;39.77;100863.94;5028613;28;20049;-63
2021/05/20 11:26:17;;;;;;;5.72;4.72;;;;;;;19.72;40.57;100853.69;5023113;28;20049;-63
2021/05/20 11:28:58;;;;;;;4.53;4.13;;;;;;;19.64;40.96;100853.44;5010086;28;20046;-63
2021/05/20 11:31:26;;;;;;;6.43;4.88;;;;;;;19.57;41.64;100858.41;5025377;28;20045;-67
2021/05/20 11:36:45;;;;;;;4.10;3.70;;;;;;;19.61;41.07;100842.91;5019840;28;20057;-63
2021/05/20 11:39:14;;;;;;;4.50;3.50;;;;;;;19.66;40.04;100842.56;5008518;28;20057;-63
2021/05/20 11:41:45;;;;;;;5.03;3.80;;;;;;;19.66;39.23;100838.06;5022447;28;20040;-65
2021/05/20 11:44:20;;;;;;;3.78;3.47;;;;;;;19.70;37.95;100836.81;5015364;28;20113;-64